EDL6 EDDM-EDDM

Flight info

Callsign EDL6
Flight time N/A
Altitude 3500
Route VFR
Aircraft EC45/L-V/N

Departure

Time 2026-05-04 18:31
Airport Munich Airport (EDDM)

Arrival

Time N/A
Airport Munich Airport (EDDM)
Time Latitude Longitude Altitude Speed Heading
2026-05-04 18:23 48.34505 11.74879 1482 ft 0 kts 263°
2026-05-04 18:30 48.34534 11.74808 1521 ft 26 kts 319°
2026-05-04 18:30 48.34594 11.74427 1710 ft 58 kts 253°
2026-05-04 18:30 48.34107 11.74284 1762 ft 93 kts 151°
2026-05-04 18:31 48.33649 11.75043 1841 ft 101 kts 126°
2026-05-04 18:31 48.33406 11.75530 1993 ft 103 kts 124°
2026-05-04 18:31 48.32974 11.76405 2251 ft 106 kts 126°
2026-05-04 18:31 48.32500 11.77284 2456 ft 110 kts 127°
2026-05-04 18:32 48.32009 11.78189 2642 ft 113 kts 127°
2026-05-04 18:32 48.31503 11.79114 2802 ft 115 kts 127°
2026-05-04 18:32 48.30992 11.80052 2958 ft 117 kts 127°
2026-05-04 18:32 48.30472 11.81015 3056 ft 121 kts 127°
2026-05-04 18:33 48.29937 11.82007 3123 ft 123 kts 127°
2026-05-04 18:33 48.29397 11.83025 3120 ft 127 kts 126°
2026-05-04 18:33 48.28855 11.84057 3121 ft 124 kts 126°
2026-05-04 18:33 48.28317 11.85086 3118 ft 126 kts 126°
2026-05-04 18:34 48.27777 11.86121 3118 ft 125 kts 126°
2026-05-04 18:34 48.27241 11.87149 3118 ft 125 kts 126°
2026-05-04 18:34 48.26704 11.88174 3119 ft 125 kts 126°
2026-05-04 18:34 48.26169 11.89201 3119 ft 124 kts 126°
2026-05-04 18:35 48.25618 11.90227 3121 ft 127 kts 131°
2026-05-04 18:35 48.24963 11.91101 3118 ft 126 kts 139°
2026-05-04 18:35 48.24279 11.91928 3118 ft 126 kts 139°
2026-05-04 18:35 48.23602 11.92764 3118 ft 126 kts 137°
2026-05-04 18:36 48.22936 11.93619 3117 ft 126 kts 137°
2026-05-04 18:36 48.22280 11.94460 3117 ft 126 kts 137°
2026-05-04 18:36 48.21616 11.95312 3118 ft 125 kts 137°
2026-05-04 18:36 48.20951 11.96165 3116 ft 126 kts 137°
2026-05-04 18:37 48.20287 11.97016 3116 ft 126 kts 137°
2026-05-04 18:37 48.19624 11.97867 3115 ft 126 kts 137°
2026-05-04 18:37 48.18960 11.98717 3114 ft 126 kts 137°
2026-05-04 18:37 48.18293 11.99570 3115 ft 126 kts 137°
2026-05-04 18:38 48.17626 12.00423 3115 ft 126 kts 137°
2026-05-04 18:38 48.16959 12.01275 3113 ft 126 kts 137°
2026-05-04 18:38 48.16291 12.02126 3113 ft 126 kts 137°
2026-05-04 18:38 48.15621 12.02979 3113 ft 126 kts 137°
2026-05-04 18:39 48.14945 12.03845 3106 ft 131 kts 137°
2026-05-04 18:39 48.14262 12.04724 3109 ft 129 kts 137°
2026-05-04 18:39 48.13590 12.05594 3108 ft 129 kts 137°
2026-05-04 18:39 48.12910 12.06475 3109 ft 129 kts 137°
2026-05-04 18:40 48.12231 12.07354 3112 ft 129 kts 137°
2026-05-04 18:40 48.11555 12.08232 3109 ft 129 kts 137°
2026-05-04 18:40 48.10874 12.09112 3109 ft 129 kts 137°
2026-05-04 18:40 48.10191 12.09991 3108 ft 130 kts 137°
2026-05-04 18:41 48.09504 12.10872 3107 ft 130 kts 137°
2026-05-04 18:41 48.08817 12.11752 3106 ft 130 kts 137°
2026-05-04 18:41 48.08139 12.12622 3105 ft 130 kts 137°
2026-05-04 18:41 48.07455 12.13500 3105 ft 130 kts 137°
2026-05-04 18:42 48.06770 12.14383 3107 ft 130 kts 137°
2026-05-04 18:42 48.06085 12.15263 3107 ft 130 kts 137°
2026-05-04 18:42 48.05401 12.16144 3108 ft 130 kts 137°
2026-05-04 18:42 48.04719 12.17023 3101 ft 130 kts 137°
2026-05-04 18:43 48.04032 12.17906 3102 ft 130 kts 137°
2026-05-04 18:43 48.03347 12.18786 3102 ft 130 kts 137°
2026-05-04 18:43 48.02705 12.19736 3102 ft 129 kts 130°
2026-05-04 18:43 48.02111 12.20726 3101 ft 129 kts 129°
2026-05-04 18:44 48.01514 12.21733 3102 ft 129 kts 129°
2026-05-04 18:44 48.01113 12.22412 3102 ft 129 kts 129°
2026-05-04 18:44 48.00330 12.23741 3102 ft 128 kts 129°
2026-05-04 18:44 47.99741 12.24742 3103 ft 128 kts 129°
2026-05-04 18:45 47.99154 12.25745 3099 ft 128 kts 129°
2026-05-04 18:45 47.98566 12.26749 3102 ft 128 kts 129°
2026-05-04 18:45 47.97982 12.27751 3102 ft 128 kts 129°
2026-05-04 18:45 47.97401 12.28751 3102 ft 128 kts 129°
2026-05-04 18:46 47.96824 12.29764 3101 ft 128 kts 126°
2026-05-04 18:46 47.96311 12.30848 3099 ft 127 kts 122°
2026-05-04 18:46 47.95819 12.31930 3099 ft 129 kts 122°
2026-05-04 18:46 47.95321 12.33034 3100 ft 128 kts 122°
2026-05-04 18:47 47.94814 12.34148 3097 ft 129 kts 122°
2026-05-04 18:47 47.94320 12.35235 3101 ft 127 kts 122°
2026-05-04 18:47 47.93822 12.36330 3098 ft 128 kts 122°
2026-05-04 18:47 47.93322 12.37419 3099 ft 127 kts 122°
2026-05-04 18:48 47.92922 12.38232 1876 ft 58 kts 140°
2026-05-04 18:48 47.92905 12.38231 1848 ft 10 kts 91°
2026-05-04 18:48 47.92809 12.38522 2217 ft 63 kts 126°
2026-05-04 18:48 47.92448 12.39230 2518 ft 110 kts 120°
2026-05-04 18:49 47.91980 12.40332 2426 ft 135 kts 120°
2026-05-04 18:49 47.91490 12.41495 2569 ft 130 kts 120°
2026-05-04 18:49 47.91019 12.42631 2736 ft 127 kts 120°
2026-05-04 18:49 47.90564 12.43719 2944 ft 120 kts 120°
2026-05-04 18:50 47.90116 12.44795 2925 ft 130 kts 120°
2026-05-04 18:50 47.89652 12.45915 2924 ft 127 kts 120°
2026-05-04 18:50 47.89193 12.47045 2919 ft 127 kts 119°
2026-05-04 18:50 47.88738 12.48165 2911 ft 126 kts 120°
2026-05-04 18:51 47.88281 12.49281 2912 ft 126 kts 120°
2026-05-04 18:51 47.87826 12.50396 2913 ft 126 kts 119°
2026-05-04 18:51 47.87368 12.51504 2910 ft 126 kts 122°
2026-05-04 18:51 47.86867 12.52555 2909 ft 127 kts 124°
2026-05-04 18:52 47.86350 12.53612 2909 ft 126 kts 124°
2026-05-04 18:52 47.85854 12.54628 2910 ft 125 kts 124°
2026-05-04 18:52 47.85321 12.55715 2909 ft 125 kts 124°
2026-05-04 18:52 47.84804 12.56769 2929 ft 127 kts 125°
2026-05-04 18:53 47.84283 12.57821 3128 ft 124 kts 125°
2026-05-04 18:53 47.83779 12.58835 3375 ft 120 kts 125°
2026-05-04 18:53 47.83220 12.59738 3544 ft 117 kts 137°
2026-05-04 18:53 47.82547 12.60467 3507 ft 126 kts 144°
2026-05-04 18:54 47.81776 12.61154 3502 ft 130 kts 150°
2026-05-04 18:54 47.80950 12.61764 3492 ft 134 kts 152°
2026-05-04 18:54 47.80123 12.62360 3492 ft 131 kts 153°
2026-05-04 18:54 47.79304 12.62959 3489 ft 130 kts 152°
2026-05-04 18:55 47.78508 12.63547 3491 ft 129 kts 152°
2026-05-04 18:55 47.76903 12.64727 3490 ft 128 kts 152°
2026-05-04 18:55 47.76103 12.65313 3488 ft 129 kts 152°
2026-05-04 18:56 47.75296 12.65875 3486 ft 127 kts 157°
2026-05-04 18:56 47.74446 12.66227 3487 ft 127 kts 168°
2026-05-04 18:56 47.73571 12.66327 3466 ft 125 kts 181°
2026-05-04 18:56 47.72722 12.66212 3372 ft 119 kts 190°
2026-05-04 18:57 47.71953 12.65870 3183 ft 112 kts 208°
2026-05-04 18:57 47.71484 12.65145 2783 ft 81 kts 255°
2026-05-04 18:57 47.71415 12.64525 2609 ft 56 kts 272°
2026-05-04 18:57 47.71585 12.64412 2459 ft 12 kts 58°
2026-05-04 18:58 47.71615 12.64426 2338 ft 3 kts 60°
2026-05-04 18:58 47.71620 12.64436 2314 ft 0 kts 61°
2026-05-04 19:04 47.71621 12.64436 2311 ft 0 kts 60°
2026-05-04 19:05 47.71620 12.64436 2311 ft 0 kts 60°
2026-05-04 19:05 47.71621 12.64436 2311 ft 0 kts 60°
2026-05-04 19:07 47.71617 12.64433 2361 ft 0 kts 58°
2026-05-04 19:07 47.71559 12.64576 2631 ft 53 kts 161°
2026-05-04 19:07 47.71401 12.64237 2549 ft 41 kts 265°
2026-05-04 19:07 47.71554 12.64095 2413 ft 24 kts 71°
2026-05-04 19:08 47.71590 12.64241 2349 ft 1 kts 74°
2026-05-04 19:08 47.71589 12.64244 2330 ft 1 kts 75°
2026-05-04 19:08 47.71591 12.64253 2352 ft 1 kts 76°
2026-05-04 19:09 47.71589 12.64250 2356 ft 1 kts 76°
2026-05-04 19:09 47.71567 12.64390 2736 ft 37 kts 78°
2026-05-04 19:09 47.71531 12.64976 3033 ft 76 kts 98°
2026-05-04 19:09 47.71218 12.65696 3289 ft 93 kts 142°
2026-05-04 19:10 47.70631 12.65969 3591 ft 86 kts 184°
2026-05-04 19:10 47.70270 12.65796 3794 ft 80 kts 207°
2026-05-04 19:10 47.69746 12.65149 4258 ft 60 kts 219°
2026-05-04 19:10 47.69444 12.64991 4694 ft 41 kts 178°
2026-05-04 19:11 47.69138 12.65232 4707 ft 69 kts 185°
2026-05-04 19:11 47.69118 12.64660 4516 ft 84 kts 331°
2026-05-04 19:11 47.69527 12.65079 4279 ft 81 kts 51°
2026-05-04 19:11 47.69913 12.65603 4009 ft 92 kts 15°
2026-05-04 19:12 47.70587 12.65549 3690 ft 105 kts 342°
2026-05-04 19:12 47.71393 12.64598 2920 ft 87 kts 267°
2026-05-04 19:12 47.71484 12.64016 2458 ft 51 kts 15°
2026-05-04 19:13 47.71585 12.64195 2373 ft 15 kts 76°
2026-05-04 19:13 47.71590 12.64243 2335 ft 1 kts 82°
2026-05-04 19:13 47.71589 12.64294 2593 ft 19 kts 83°
2026-05-04 19:13 47.71530 12.64757 2999 ft 73 kts 111°
2026-05-04 19:14 47.71123 12.65188 3389 ft 73 kts 162°
2026-05-04 19:14 47.70622 12.65404 3736 ft 78 kts 173°
2026-05-04 19:14 47.70060 12.65360 3976 ft 86 kts 193°
2026-05-04 19:14 47.69541 12.65065 4324 ft 74 kts 205°
2026-05-04 19:15 47.69215 12.64468 4325 ft 106 kts 280°
2026-05-04 19:15 47.69892 12.64046 4039 ft 122 kts 19°
2026-05-04 19:15 47.70628 12.64639 3779 ft 121 kts 40°
2026-05-04 19:15 47.71286 12.64898 3143 ft 73 kts 298°
2026-05-04 19:16 47.71560 12.64360 2821 ft 68 kts 321°
2026-05-04 19:16 47.71764 12.63732 2756 ft 66 kts 257°
2026-05-04 19:16 47.71554 12.63877 2519 ft 45 kts 84°
2026-05-04 19:16 47.71587 12.64130 2449 ft 15 kts 74°
2026-05-04 19:17 47.71591 12.64228 2350 ft 5 kts 86°
2026-05-04 19:17 47.71591 12.64249 2360 ft 2 kts 90°
2026-05-04 19:17 47.71572 12.64387 2754 ft 40 kts 91°
2026-05-04 19:17 47.71379 12.65004 3142 ft 88 kts 132°
2026-05-04 19:18 47.70787 12.65184 3450 ft 85 kts 196°
2026-05-04 19:18 47.70285 12.64895 3860 ft 72 kts 201°
2026-05-04 19:18 47.69855 12.64602 4181 ft 67 kts 216°
2026-05-04 19:18 47.69395 12.64351 4497 ft 83 kts 164°
2026-05-04 19:19 47.69118 12.65082 4436 ft 86 kts 89°
2026-05-04 19:19 47.69457 12.65707 4056 ft 84 kts 14°
2026-05-04 19:19 47.70101 12.65748 3660 ft 99 kts 353°
2026-05-04 19:19 47.70784 12.65548 3348 ft 100 kts 341°
2026-05-04 19:20 47.71403 12.65113 3044 ft 98 kts 320°
2026-05-04 19:20 47.71787 12.64315 2851 ft 93 kts 282°
2026-05-04 19:20 47.71636 12.63733 2566 ft 53 kts 146°
2026-05-04 19:20 47.71626 12.64016 2405 ft 26 kts 81°
2026-05-04 19:21 47.71643 12.64167 2347 ft 9 kts 92°
2026-05-04 19:21 47.71639 12.64206 2329 ft 1 kts 97°
2026-05-04 19:21 47.71629 12.64236 2636 ft 20 kts 107°
2026-05-04 19:21 47.71413 12.64565 3114 ft 44 kts 130°
2026-05-04 19:22 47.71223 12.64716 3284 ft 42 kts 174°
2026-05-04 19:22 47.70858 12.64748 3525 ft 64 kts 184°
2026-05-04 19:22 47.70349 12.64692 3927 ft 80 kts 184°
2026-05-04 19:22 47.69799 12.64640 4081 ft 75 kts 196°
2026-05-04 19:23 47.69341 12.64863 4448 ft 85 kts 111°
2026-05-04 19:23 47.69666 12.65696 4167 ft 106 kts 31°
2026-05-04 19:23 47.70409 12.65809 3743 ft 115 kts 340°
2026-05-04 19:23 47.71113 12.65289 3352 ft 109 kts 327°
2026-05-04 19:24 47.71676 12.64608 2816 ft 101 kts 309°
2026-05-04 19:24 47.71770 12.63819 2657 ft 72 kts 257°
2026-05-04 19:24 47.71561 12.63844 2507 ft 40 kts 99°
2026-05-04 19:24 47.71597 12.64168 2430 ft 16 kts 87°
2026-05-04 19:25 47.71592 12.64229 2352 ft 4 kts 94°
2026-05-04 19:25 47.71591 12.64244 2332 ft 2 kts 94°
2026-05-04 19:25 47.71579 12.64298 2662 ft 24 kts 95°
2026-05-04 19:25 47.71382 12.64808 3055 ft 85 kts 136°
2026-05-04 19:26 47.70811 12.65022 3449 ft 86 kts 191°
2026-05-04 19:26 47.70202 12.64809 3536 ft 96 kts 188°
2026-05-04 19:26 47.69705 12.64552 3602 ft 67 kts 199°
2026-05-04 19:26 47.69260 12.64641 3871 ft 86 kts 153°
2026-05-04 19:27 47.69209 12.65529 3864 ft 110 kts 43°
2026-05-04 19:27 47.69986 12.65867 3507 ft 125 kts 356°
2026-05-04 19:27 47.70771 12.65501 3371 ft 112 kts 332°
2026-05-04 19:27 47.71390 12.64891 3107 ft 110 kts 320°
2026-05-04 19:28 47.71825 12.63975 2813 ft 104 kts 276°
2026-05-04 19:28 47.71586 12.63792 2515 ft 36 kts 95°
2026-05-04 19:28 47.71598 12.64098 2405 ft 25 kts 89°
2026-05-04 19:28 47.71592 12.64230 2337 ft 5 kts 95°
2026-05-04 19:29 47.71592 12.64244 2341 ft 1 kts 96°
2026-05-04 19:29 47.71563 12.64400 2721 ft 43 kts 96°
2026-05-04 19:29 47.71376 12.65066 3094 ft 82 kts 127°
2026-05-04 19:29 47.70876 12.65246 3529 ft 76 kts 190°
2026-05-04 19:30 47.70369 12.64982 3800 ft 82 kts 199°
2026-05-04 19:30 47.69835 12.64744 4172 ft 77 kts 202°
2026-05-04 19:30 47.69314 12.64630 4440 ft 87 kts 134°
2026-05-04 19:30 47.69322 12.65565 4167 ft 103 kts 43°
2026-05-04 19:31 47.69966 12.65841 3965 ft 98 kts
2026-05-04 19:31 47.70636 12.65600 3566 ft 102 kts 335°
2026-05-04 19:31 47.71284 12.65089 3196 ft 114 kts 318°
2026-05-04 19:31 47.71779 12.64175 2938 ft 102 kts 289°
2026-05-04 19:32 47.71606 12.63725 2542 ft 36 kts 121°
2026-05-04 19:32 47.71599 12.64077 2438 ft 34 kts 91°
2026-05-04 19:32 47.71592 12.64216 2361 ft 6 kts 94°
2026-05-04 19:32 47.71594 12.64243 2341 ft 2 kts 95°
2026-05-04 19:33 47.71584 12.64374 2770 ft 36 kts 96°
2026-05-04 19:33 47.71305 12.64837 3103 ft 85 kts 158°
2026-05-04 19:33 47.70695 12.64971 3490 ft 91 kts 180°
2026-05-04 19:33 47.70150 12.64834 3827 ft 63 kts 196°
2026-05-04 19:34 47.69888 12.64608 3945 ft 42 kts 222°
2026-05-04 19:34 47.70027 12.64112 3906 ft 98 kts 339°
2026-05-04 19:34 47.70796 12.64167 3793 ft 110 kts 11°
2026-05-04 19:34 47.71547 12.64348 3070 ft 97 kts
2026-05-04 19:35 47.71785 12.63818 2733 ft 68 kts 255°
2026-05-04 19:35 47.71583 12.64065 2465 ft 41 kts 87°
2026-05-04 19:35 47.71597 12.64198 2385 ft 7 kts 95°
2026-05-04 19:35 47.71592 12.64239 2334 ft 0 kts 99°
2026-05-04 19:36 47.71590 12.64251 2482 ft 9 kts 101°
2026-05-04 19:36 47.71510 12.64609 2929 ft 63 kts 103°
2026-05-04 19:36 47.71046 12.65018 3234 ft 84 kts 173°
2026-05-04 19:36 47.70484 12.64942 3629 ft 77 kts 188°
2026-05-04 19:37 47.70039 12.64848 4111 ft 50 kts 186°
2026-05-04 19:37 47.69751 12.64743 4589 ft 46 kts 200°
2026-05-04 19:37 47.69299 12.65059 4648 ft 94 kts 123°
2026-05-04 19:37 47.69535 12.65883 4600 ft 97 kts 19°
2026-05-04 19:38 47.70166 12.65771 4191 ft 89 kts 337°
2026-05-04 19:38 47.70721 12.65363 3660 ft 94 kts 326°
2026-05-04 19:38 47.71340 12.64948 3101 ft 98 kts 340°
2026-05-04 19:38 47.71833 12.64431 2756 ft 80 kts 293°
2026-05-04 19:39 47.71762 12.63676 2724 ft 67 kts 231°
2026-05-04 19:39 47.71545 12.63785 2601 ft 42 kts 84°
2026-05-04 19:39 47.71587 12.64160 2438 ft 14 kts 84°
2026-05-04 19:39 47.71590 12.64215 2365 ft 6 kts 91°
2026-05-04 19:40 47.71591 12.64241 2327 ft 1 kts 91°
2026-05-04 19:40 47.71569 12.64355 2690 ft 36 kts 92°
2026-05-04 19:40 47.71386 12.64923 3079 ft 85 kts 123°
2026-05-04 19:40 47.70879 12.65423 3398 ft 85 kts 171°
2026-05-04 19:41 47.70248 12.65345 3579 ft 92 kts 193°
2026-05-04 19:41 47.69736 12.65167 4053 ft 59 kts 184°
2026-05-04 19:41 47.69334 12.64746 4378 ft 93 kts 237°
2026-05-04 19:41 47.69582 12.63732 4314 ft 130 kts 317°
2026-05-04 19:42 47.70375 12.63866 4259 ft 118 kts 45°
2026-05-04 19:42 47.71019 12.64591 3905 ft 106 kts 24°
2026-05-04 19:42 47.71630 12.64862 3281 ft 84 kts 341°
2026-05-04 19:42 47.71886 12.64285 2813 ft 73 kts 259°
2026-05-04 19:43 47.71611 12.63813 2556 ft 46 kts 139°
2026-05-04 19:43 47.71634 12.64099 2442 ft 12 kts 84°
2026-05-04 19:43 47.71639 12.64193 2339 ft 4 kts 95°
2026-05-04 19:43 47.71637 12.64200 2416 ft 1 kts 97°
2026-05-04 19:44 47.71610 12.64354 2913 ft 40 kts 98°
2026-05-04 19:44 47.71366 12.64913 3227 ft 81 kts 132°
2026-05-04 19:44 47.71010 12.65338 3787 ft 58 kts 166°
2026-05-04 19:44 47.70565 12.65126 3969 ft 78 kts 207°
2026-05-04 19:45 47.70098 12.64827 3987 ft 68 kts 199°
2026-05-04 19:45 47.69707 12.64552 4058 ft 57 kts 200°
2026-05-04 19:45 47.69528 12.64057 4168 ft 69 kts 283°
2026-05-04 19:45 47.69970 12.63834 4056 ft 80 kts 14°
2026-05-04 19:46 47.70521 12.64041 4079 ft 82 kts 15°
2026-05-04 19:46 47.71048 12.64250 3661 ft 76 kts 20°
2026-05-04 19:46 47.71619 12.64402 3167 ft 100 kts 357°
2026-05-04 19:46 47.71809 12.63689 2787 ft 98 kts 225°
2026-05-04 19:47 47.71610 12.64024 2445 ft 28 kts 73°
2026-05-04 19:47 47.71636 12.64167 2361 ft 4 kts 86°
2026-05-04 19:47 47.71635 12.64222 2380 ft 17 kts 90°
2026-05-04 19:47 47.71492 12.64683 2835 ft 77 kts 121°
2026-05-04 19:48 47.71041 12.65209 3095 ft 89 kts 165°
2026-05-04 19:48 47.70426 12.65061 3255 ft 91 kts 202°
2026-05-04 19:48 47.69916 12.64710 3484 ft 60 kts 214°
2026-05-04 19:48 47.69736 12.64109 3885 ft 86 kts 266°
2026-05-04 19:49 47.70267 12.63670 3899 ft 122 kts
2026-05-04 19:49 47.71045 12.64050 3394 ft 107 kts 32°
2026-05-04 19:49 47.71663 12.64379 2772 ft 100 kts 332°
2026-05-04 19:49 47.71597 12.63719 2555 ft 56 kts 143°
2026-05-04 19:50 47.71587 12.64150 2405 ft 26 kts 84°
2026-05-04 19:50 47.71591 12.64234 2332 ft 3 kts 94°
2026-05-04 19:50 47.71591 12.64241 2317 ft 1 kts 93°
2026-05-04 19:50 47.71574 12.64328 2620 ft 24 kts 95°
2026-05-04 19:51 47.71438 12.64687 3076 ft 63 kts 128°
2026-05-04 19:51 47.70957 12.64956 3439 ft 83 kts 178°
2026-05-04 19:51 47.70367 12.64935 3680 ft 86 kts 184°
2026-05-04 19:51 47.69909 12.64783 4007 ft 55 kts 202°
2026-05-04 19:52 47.69567 12.64535 4387 ft 65 kts 217°
2026-05-04 19:52 47.69673 12.63763 4509 ft 107 kts 311°
2026-05-04 19:52 47.70483 12.63555 4012 ft 131 kts 349°
2026-05-04 19:52 47.71214 12.63275 3489 ft 87 kts
2026-05-04 19:53 47.71534 12.63744 2885 ft 65 kts 74°
2026-05-04 19:53 47.71590 12.64115 2659 ft 9 kts 77°
2026-05-04 19:53 47.71588 12.64164 2534 ft 1 kts 79°
2026-05-04 19:53 47.71586 12.64200 2415 ft 5 kts 84°
2026-05-04 19:54 47.71590 12.64238 2331 ft 2 kts 85°
2026-05-04 19:54 47.71591 12.64240 2316 ft 0 kts 85°
2026-05-04 19:54 47.71586 12.64230 2598 ft 3 kts 85°
2026-05-04 19:54 47.71507 12.64416 2999 ft 55 kts 114°
2026-05-04 19:55 47.71142 12.64974 3254 ft 86 kts 143°
2026-05-04 19:55 47.70597 12.65182 3670 ft 74 kts 175°
2026-05-04 19:55 47.70134 12.65198 4039 ft 60 kts 188°
2026-05-04 19:55 47.69737 12.65111 4264 ft 56 kts 184°
2026-05-04 19:56 47.69370 12.65003 4568 ft 60 kts 217°
2026-05-04 19:56 47.69468 12.64391 4636 ft 78 kts 326°
2026-05-04 19:56 47.69999 12.64471 4142 ft 95 kts 25°
2026-05-04 19:56 47.70752 12.65049 3313 ft 145 kts 28°
2026-05-04 19:57 47.71654 12.65034 2969 ft 128 kts 333°
2026-05-04 19:57 47.71850 12.64062 2873 ft 88 kts 252°
2026-05-04 19:57 47.71609 12.63891 2561 ft 56 kts 120°
2026-05-04 19:57 47.71591 12.64208 2364 ft 11 kts 88°
2026-05-04 19:58 47.71591 12.64240 2322 ft 1 kts 89°
2026-05-04 19:58 47.71583 12.64240 2497 ft 5 kts 91°
2026-05-04 19:58 47.71505 12.64497 2984 ft 59 kts 96°
2026-05-04 19:58 47.71181 12.65220 3239 ft 99 kts 135°
2026-05-04 19:59 47.70528 12.65580 3387 ft 102 kts 179°
2026-05-04 19:59 47.69920 12.65348 3660 ft 79 kts 202°
2026-05-04 19:59 47.69535 12.65153 4207 ft 37 kts 189°
2026-05-04 19:59 47.69361 12.65039 4457 ft 47 kts 233°
2026-05-04 20:00 47.69749 12.64378 3761 ft 114 kts 340°
2026-05-04 20:00 47.70572 12.64515 3575 ft 123 kts 18°
2026-05-04 20:00 47.71341 12.64902 3008 ft 115 kts 348°
2026-05-04 20:00 47.71618 12.64320 2608 ft 40 kts 273°
2026-05-04 20:01 47.71716 12.63721 2798 ft 59 kts 225°
2026-05-04 20:01 47.71564 12.64122 2510 ft 56 kts 76°
2026-05-04 20:01 47.71622 12.64420 2400 ft 2 kts 70°
2026-05-04 20:01 47.71631 12.64461 2326 ft 3 kts 71°
2026-05-04 20:02 47.71631 12.64464 2311 ft 0 kts 70°